Nissho Maru No.18 — JL6369 — position and weather

sailwx.info

Track history (hours):
 
Tides and Currents Weather Stations Pressure Air Temp Water Temp Dewpoint Dewpoint Depression Visibility Wind Speed Wind Dir Waves Ship Positions

Nissho Maru No.18

Last reported at 2017-Jun-22 16:02 UTC. Time now 2017-Jun-26 05:19 UTC.
Position N 34°35' E 135°05'.

Length 65 m; draft 4 m.

Type: Tanker. MMSI: 431500465.

Date/timePositionNaut miles runAvg speedWind from/ knotsBaromVisibWave heightAir tempDewpointWater temp
2017-Jun-22 16:02N 34°35' E 135°05'0 7.6
2017-Jun-22 15:59N 34°35' E 135°05'2310.2
2017-Jun-22 13:46N 34°13' E 134°60'  
2017-Jun-20 04:39N 35°07' E 139°43'411.1
2017-Jun-20 04:15N 35°11' E 139°45'310.6
2017-Jun-20 04:00N 35°14' E 139°46'510.1
2017-Jun-20 03:30N 35°18' E 139°44'510.5
2017-Jun-20 03:01N 35°23' E 139°43'510.4
2017-Jun-20 02:31N 35°28' E 139°46'4 7.6
2017-Jun-20 02:00N 35°31' E 139°46'0 0.1
2017-Jun-20 01:30N 35°31' E 139°46'0 0.0
2017-Jun-20 01:01N 35°31' E 139°46'0 0.0
2017-Jun-20 00:31N 35°31' E 139°46'0 0.0
2017-Jun-20 00:01N 35°31' E 139°46'0 0.0
2017-Jun-19 23:31N 35°31' E 139°46'2 3.3
2017-Jun-19 23:01N 35°30' E 139°47'1 2.2
2017-Jun-19 22:30N 35°30' E 139°48'1 1.5
2017-Jun-19 22:01N 35°29' E 139°49'0 0.0
2017-Jun-19 21:31N 35°29' E 139°49'0 0.0
2017-Jun-19 21:01N 35°29' E 139°49'0 0.0
2017-Jun-19 20:31N 35°29' E 139°49'0 0.0
2017-Jun-19 20:00N 35°29' E 139°49'0 0.0
2017-Jun-19 19:31N 35°29' E 139°49'0 0.0
2017-Jun-19 19:01N 35°29' E 139°49'0 0.0
2017-Jun-19 18:31N 35°29' E 139°49'0 0.0
2017-Jun-19 18:01N 35°29' E 139°49'0 0.0
2017-Jun-19 17:31N 35°29' E 139°49'0 0.0
2017-Jun-19 17:01N 35°29' E 139°49'0 0.0
2017-Jun-19 16:31N 35°29' E 139°49'0 0.0
2017-Jun-19 16:01N 35°29' E 139°49'0 0.0
2017-Jun-19 15:30N 35°29' E 139°49'0 0.0
2017-Jun-19 15:01N 35°29' E 139°49'0 0.0
2017-Jun-19 14:01N 35°29' E 139°49'0 0.0
2017-Jun-19 13:31N 35°29' E 139°49'0 0.0
2017-Jun-19 13:01N 35°29' E 139°49'0 0.0
2017-Jun-19 12:31N 35°29' E 139°49'0 0.0
2017-Jun-19 12:01N 35°29' E 139°49'0 0.0
2017-Jun-19 11:30N 35°29' E 139°49'0 0.0
2017-Jun-19 11:01N 35°29' E 139°49'0 0.0
2017-Jun-19 10:31N 35°29' E 139°49'0 0.1
2017-Jun-19 10:00N 35°29' E 139°49'0 0.0
2017-Jun-19 09:31N 35°29' E 139°49'0 0.0
2017-Jun-19 09:01N 35°29' E 139°49'0 0.0
2017-Jun-19 08:31N 35°29' E 139°49'0 0.0
2017-Jun-19 08:01N 35°29' E 139°49'0 0.0
2017-Jun-19 07:30N 35°29' E 139°49'0 0.0
2017-Jun-19 07:00N 35°29' E 139°49'0 0.0
2017-Jun-19 06:31N 35°29' E 139°49'0 0.0
2017-Jun-19 06:01N 35°29' E 139°49'0 0.1
2017-Jun-19 05:31N 35°29' E 139°49'4 8.3
2017-Jun-19 05:01N 35°25' E 139°47'510.4
2017-Jun-19 04:31N 35°20' E 139°45'5 9.6
2017-Jun-19 04:00N 35°16' E 139°47'510.2
2017-Jun-19 03:30N 35°11' E 139°47'242 8.7
2017-Jun-17 23:41N 34°06' E 135°03'211.3
2017-Jun-17 23:30N 34°08' E 135°03'511.1
2017-Jun-17 23:01N 34°13' E 135°07'2 3.5
2017-Jun-17 22:31N 34°13' E 135°09'0 0.0
2017-Jun-17 22:01N 34°13' E 135°09'0 0.0
2017-Jun-17 21:30N 34°13' E 135°09'0 0.0
2017-Jun-17 21:01N 34°13' E 135°09'0 0.0
2017-Jun-17 20:31N 34°13' E 135°09'0 0.0
2017-Jun-17 20:00N 34°13' E 135°09'0 0.0
2017-Jun-17 19:30N 34°13' E 135°09'0 0.0
2017-Jun-17 19:00N 34°13' E 135°09'0 0.0
2017-Jun-17 18:30N 34°13' E 135°09'0 0.0
2017-Jun-17 18:00N 34°13' E 135°09'0 0.0
2017-Jun-17 17:31N 34°13' E 135°09'0 0.0
2017-Jun-17 17:01N 34°13' E 135°09'0 0.0
2017-Jun-17 16:30N 34°13' E 135°09'0 0.0
2017-Jun-17 16:00N 34°13' E 135°09'0 0.0
2017-Jun-17 15:30N 34°13' E 135°09'0 0.0
2017-Jun-17 15:00N 34°13' E 135°09'0 0.0
2017-Jun-17 14:00N 34°13' E 135°09'0 0.0
2017-Jun-17 13:30N 34°13' E 135°09'0 0.0
2017-Jun-17 13:00N 34°13' E 135°09'0 0.0
2017-Jun-17 12:31N 34°13' E 135°09'0 0.0
2017-Jun-17 12:00N 34°13' E 135°09'0 0.0
2017-Jun-17 11:31N 34°13' E 135°09'0 0.0
2017-Jun-17 11:00N 34°13' E 135°09'0 0.0
2017-Jun-17 10:30N 34°13' E 135°09'0 0.0
2017-Jun-17 10:00N 34°13' E 135°09'0 0.0
2017-Jun-17 09:30N 34°13' E 135°09'0 0.0
2017-Jun-17 09:00N 34°13' E 135°09'0 0.0
2017-Jun-17 08:30N 34°13' E 135°09'0 0.0
2017-Jun-17 08:00N 34°13' E 135°09'0 0.0
2017-Jun-17 07:31N 34°13' E 135°09'0 0.0
2017-Jun-17 07:00N 34°13' E 135°09'0 0.0
2017-Jun-17 06:30N 34°13' E 135°09'0 0.0
2017-Jun-17 06:00N 34°13' E 135°09'0 0.0
2017-Jun-17 05:31N 34°13' E 135°09'0 0.0
2017-Jun-17 05:00N 34°13' E 135°09'0 0.0
2017-Jun-17 04:30N 34°13' E 135°09'0 0.0
2017-Jun-17 04:00N 34°13' E 135°09'0 0.0
2017-Jun-17 03:30N 34°13' E 135°09'0 0.0
2017-Jun-17 03:00N 34°13' E 135°09'0 0.0
2017-Jun-17 02:30N 34°13' E 135°09'0 0.0
2017-Jun-17 02:01N 34°13' E 135°09'0 0.0
2017-Jun-17 01:31N 34°13' E 135°09'0 0.0
2017-Jun-17 01:00N 34°13' E 135°09'0 0.0
2017-Jun-17 00:31N 34°13' E 135°09'0 0.0
2017-Jun-17 00:00N 34°13' E 135°09'0 0.0
2017-Jun-16 23:30N 34°13' E 135°09'0 0.0
2017-Jun-16 23:01N 34°13' E 135°09'0 0.0
2017-Jun-16 22:30N 34°13' E 135°09'0 0.0
2017-Jun-16 22:01N 34°13' E 135°09'0 0.0
2017-Jun-16 21:30N 34°13' E 135°09'0 0.0
2017-Jun-16 21:00N 34°13' E 135°09'0 0.0
2017-Jun-16 20:31N 34°13' E 135°09'0 0.0
2017-Jun-16 20:00N 34°13' E 135°09'0 0.0
2017-Jun-16 19:30N 34°13' E 135°09'0 0.0
2017-Jun-16 19:00N 34°13' E 135°09'0 0.0
2017-Jun-16 18:30N 34°13' E 135°09'0 0.0
2017-Jun-16 18:01N 34°13' E 135°09'0 0.0
2017-Jun-16 17:30N 34°13' E 135°09'0 0.0
2017-Jun-16 17:01N 34°13' E 135°09'0 0.0
2017-Jun-16 16:30N 34°13' E 135°09'0 0.0
2017-Jun-16 16:01N 34°13' E 135°09'0 0.0
2017-Jun-16 15:31N 34°13' E 135°09'0 0.0
2017-Jun-16 15:00N 34°13' E 135°09'0 0.0
2017-Jun-16 14:01N 34°13' E 135°09'0 0.0
2017-Jun-16 13:31N 34°13' E 135°09'0 0.0
2017-Jun-16 13:00N 34°13' E 135°09'0 0.0
2017-Jun-16 12:30N 34°13' E 135°09'0 0.0
2017-Jun-16 12:00N 34°13' E 135°09'0 0.0
2017-Jun-16 11:30N 34°13' E 135°09'0 0.0
2017-Jun-16 11:00N 34°13' E 135°09'0 0.0
2017-Jun-16 10:30N 34°13' E 135°09'0 0.0
2017-Jun-16 10:00N 34°13' E 135°09'0 0.0
2017-Jun-16 09:30N 34°13' E 135°09'0 0.0
2017-Jun-16 09:00N 34°13' E 135°09'0 0.0
2017-Jun-16 08:30N 34°13' E 135°09'0 0.0
2017-Jun-16 08:00N 34°13' E 135°09'0 0.0
2017-Jun-16 07:30N 34°13' E 135°09'0 0.0
2017-Jun-16 07:00N 34°13' E 135°09'0 0.0
2017-Jun-16 06:31N 34°13' E 135°09'0 0.0
2017-Jun-16 06:00N 34°13' E 135°09'9 6.6
2017-Jun-16 04:37N 34°22' E 135°07'211.0
2017-Jun-16 04:24N 34°24' E 135°09'511.2
2017-Jun-16 03:58N 34°28' E 135°13'510.6
2017-Jun-16 03:31N 34°31' E 135°16'2 4.0
2017-Jun-16 03:00N 34°33' E 135°18'0 0.0
2017-Jun-16 02:30N 34°33' E 135°18'0 0.0
2017-Jun-16 02:01N 34°33' E 135°18'0 0.0
2017-Jun-16 01:31N 34°33' E 135°18'0 0.0
2017-Jun-16 01:01N 34°33' E 135°18'0 0.1
2017-Jun-16 00:30N 34°33' E 135°18'0 0.0
2017-Jun-16 00:00N 34°33' E 135°18'0 0.0
2017-Jun-15 23:30N 34°33' E 135°18'0 0.0
2017-Jun-15 22:44N 34°33' E 135°18'0 0.0
2017-Jun-15 22:30N 34°33' E 135°18'0 0.0
2017-Jun-15 22:00N 34°33' E 135°18'0 0.1
2017-Jun-15 21:31N 34°33' E 135°18'0 0.0
2017-Jun-15 21:01N 34°33' E 135°18'0 0.0
2017-Jun-15 20:31N 34°33' E 135°18'0 0.0
2017-Jun-15 20:00N 34°33' E 135°18'0 0.0
2017-Jun-15 19:30N 34°33' E 135°18'0 0.0
2017-Jun-15 19:00N 34°33' E 135°18'0 0.0
2017-Jun-15 18:30N 34°33' E 135°18'0 0.0
2017-Jun-15 18:01N 34°33' E 135°18'0 0.0
2017-Jun-15 17:31N 34°33' E 135°18'0 0.0
2017-Jun-15 17:01N 34°33' E 135°18'0 0.0
2017-Jun-15 16:30N 34°33' E 135°18'0 0.0
2017-Jun-15 16:01N 34°33' E 135°18'0 0.0
2017-Jun-15 15:31N 34°33' E 135°18'0 0.0
2017-Jun-15 15:01N 34°33' E 135°18'0 0.0
2017-Jun-15 14:30N 34°33' E 135°18'0 0.0
2017-Jun-15 13:31N 34°33' E 135°18'0 0.0
2017-Jun-15 13:00N 34°33' E 135°18'0 0.0
2017-Jun-15 12:31N 34°33' E 135°18'0 0.0
2017-Jun-15 12:00N 34°33' E 135°18'0 0.0
2017-Jun-15 11:31N 34°33' E 135°18'0 0.0
2017-Jun-15 11:00N 34°33' E 135°18'0 0.0
2017-Jun-15 10:31N 34°33' E 135°18'0 0.0
2017-Jun-15 10:00N 34°33' E 135°18'0 0.0
2017-Jun-15 09:31N 34°33' E 135°18'2 4.3
2017-Jun-15 09:00N 34°33' E 135°15'612.4
2017-Jun-15 08:30N 34°34' E 135°08'713.7
2017-Jun-15 08:00N 34°37' E 135°01'13 0.8
2017-Jun-14 16:23N 34°42' E 134°46'  
Track history (hours):
 
Tides and Currents Weather Stations Pressure Air Temp Water Temp Dewpoint Dewpoint Depression Visibility Wind Speed Wind Dir Waves Ship Positions

Nissho Maru No.18

Last reported at 2017-Jun-22 16:02 UTC. Time now 2017-Jun-26 05:19 UTC.
Position N 34°35' E 135°05'.

Length 65 m; draft 4 m.

Type: Tanker. MMSI: 431500465.

Date/timePositionNaut miles runAvg speedWind from/ knotsBaromVisibWave heightAir tempDewpointWater temp
2017-Jun-22 16:02N 34°35' E 135°05'0 7.6
2017-Jun-22 15:59N 34°35' E 135°05'2310.2
2017-Jun-22 13:46N 34°13' E 134°60'  
2017-Jun-20 04:39N 35°07' E 139°43'411.1
2017-Jun-20 04:15N 35°11' E 139°45'310.6
2017-Jun-20 04:00N 35°14' E 139°46'510.1
2017-Jun-20 03:30N 35°18' E 139°44'510.5
2017-Jun-20 03:01N 35°23' E 139°43'510.4
2017-Jun-20 02:31N 35°28' E 139°46'4 7.6
2017-Jun-20 02:00N 35°31' E 139°46'0 0.1
2017-Jun-20 01:30N 35°31' E 139°46'0 0.0
2017-Jun-20 01:01N 35°31' E 139°46'0 0.0
2017-Jun-20 00:31N 35°31' E 139°46'0 0.0
2017-Jun-20 00:01N 35°31' E 139°46'0 0.0
2017-Jun-19 23:31N 35°31' E 139°46'2 3.3
2017-Jun-19 23:01N 35°30' E 139°47'1 2.2
2017-Jun-19 22:30N 35°30' E 139°48'1 1.5
2017-Jun-19 22:01N 35°29' E 139°49'0 0.0
2017-Jun-19 21:31N 35°29' E 139°49'0 0.0
2017-Jun-19 21:01N 35°29' E 139°49'0 0.0
2017-Jun-19 20:31N 35°29' E 139°49'0 0.0
2017-Jun-19 20:00N 35°29' E 139°49'0 0.0
2017-Jun-19 19:31N 35°29' E 139°49'0 0.0
2017-Jun-19 19:01N 35°29' E 139°49'0 0.0
2017-Jun-19 18:31N 35°29' E 139°49'0 0.0
2017-Jun-19 18:01N 35°29' E 139°49'0 0.0
2017-Jun-19 17:31N 35°29' E 139°49'0 0.0
2017-Jun-19 17:01N 35°29' E 139°49'0 0.0
2017-Jun-19 16:31N 35°29' E 139°49'0 0.0
2017-Jun-19 16:01N 35°29' E 139°49'0 0.0
2017-Jun-19 15:30N 35°29' E 139°49'0 0.0
2017-Jun-19 15:01N 35°29' E 139°49'0 0.0
2017-Jun-19 14:01N 35°29' E 139°49'0 0.0
2017-Jun-19 13:31N 35°29' E 139°49'0 0.0
2017-Jun-19 13:01N 35°29' E 139°49'0 0.0
2017-Jun-19 12:31N 35°29' E 139°49'0 0.0
2017-Jun-19 12:01N 35°29' E 139°49'0 0.0
2017-Jun-19 11:30N 35°29' E 139°49'0 0.0
2017-Jun-19 11:01N 35°29' E 139°49'0 0.0
2017-Jun-19 10:31N 35°29' E 139°49'0 0.1
2017-Jun-19 10:00N 35°29' E 139°49'0 0.0
2017-Jun-19 09:31N 35°29' E 139°49'0 0.0
2017-Jun-19 09:01N 35°29' E 139°49'0 0.0
2017-Jun-19 08:31N 35°29' E 139°49'0 0.0
2017-Jun-19 08:01N 35°29' E 139°49'0 0.0
2017-Jun-19 07:30N 35°29' E 139°49'0 0.0
2017-Jun-19 07:00N 35°29' E 139°49'0 0.0
2017-Jun-19 06:31N 35°29' E 139°49'0 0.0
2017-Jun-19 06:01N 35°29' E 139°49'0 0.1
2017-Jun-19 05:31N 35°29' E 139°49'4 8.3
2017-Jun-19 05:01N 35°25' E 139°47'510.4
2017-Jun-19 04:31N 35°20' E 139°45'5 9.6
2017-Jun-19 04:00N 35°16' E 139°47'510.2
2017-Jun-19 03:30N 35°11' E 139°47'242 8.7
2017-Jun-17 23:41N 34°06' E 135°03'211.3
2017-Jun-17 23:30N 34°08' E 135°03'511.1
2017-Jun-17 23:01N 34°13' E 135°07'2 3.5
2017-Jun-17 22:31N 34°13' E 135°09'0 0.0
2017-Jun-17 22:01N 34°13' E 135°09'0 0.0
2017-Jun-17 21:30N 34°13' E 135°09'0 0.0
2017-Jun-17 21:01N 34°13' E 135°09'0 0.0
2017-Jun-17 20:31N 34°13' E 135°09'0 0.0
2017-Jun-17 20:00N 34°13' E 135°09'0 0.0
2017-Jun-17 19:30N 34°13' E 135°09'0 0.0
2017-Jun-17 19:00N 34°13' E 135°09'0 0.0
2017-Jun-17 18:30N 34°13' E 135°09'0 0.0
2017-Jun-17 18:00N 34°13' E 135°09'0 0.0
2017-Jun-17 17:31N 34°13' E 135°09'0 0.0
2017-Jun-17 17:01N 34°13' E 135°09'0 0.0
2017-Jun-17 16:30N 34°13' E 135°09'0 0.0
2017-Jun-17 16:00N 34°13' E 135°09'0 0.0
2017-Jun-17 15:30N 34°13' E 135°09'0 0.0
2017-Jun-17 15:00N 34°13' E 135°09'0 0.0
2017-Jun-17 14:00N 34°13' E 135°09'0 0.0
2017-Jun-17 13:30N 34°13' E 135°09'0 0.0
2017-Jun-17 13:00N 34°13' E 135°09'0 0.0
2017-Jun-17 12:31N 34°13' E 135°09'0 0.0
2017-Jun-17 12:00N 34°13' E 135°09'0 0.0
2017-Jun-17 11:31N 34°13' E 135°09'0 0.0
2017-Jun-17 11:00N 34°13' E 135°09'0 0.0
2017-Jun-17 10:30N 34°13' E 135°09'0 0.0
2017-Jun-17 10:00N 34°13' E 135°09'0 0.0
2017-Jun-17 09:30N 34°13' E 135°09'0 0.0
2017-Jun-17 09:00N 34°13' E 135°09'0 0.0
2017-Jun-17 08:30N 34°13' E 135°09'0 0.0
2017-Jun-17 08:00N 34°13' E 135°09'0 0.0
2017-Jun-17 07:31N 34°13' E 135°09'0 0.0
2017-Jun-17 07:00N 34°13' E 135°09'0 0.0
2017-Jun-17 06:30N 34°13' E 135°09'0 0.0
2017-Jun-17 06:00N 34°13' E 135°09'0 0.0
2017-Jun-17 05:31N 34°13' E 135°09'0 0.0
2017-Jun-17 05:00N 34°13' E 135°09'0 0.0
2017-Jun-17 04:30N 34°13' E 135°09'0 0.0
2017-Jun-17 04:00N 34°13' E 135°09'0 0.0
2017-Jun-17 03:30N 34°13' E 135°09'0 0.0
2017-Jun-17 03:00N 34°13' E 135°09'0 0.0
2017-Jun-17 02:30N 34°13' E 135°09'0 0.0
2017-Jun-17 02:01N 34°13' E 135°09'0 0.0
2017-Jun-17 01:31N 34°13' E 135°09'0 0.0
2017-Jun-17 01:00N 34°13' E 135°09'0 0.0
2017-Jun-17 00:31N 34°13' E 135°09'0 0.0
2017-Jun-17 00:00N 34°13' E 135°09'0 0.0
2017-Jun-16 23:30N 34°13' E 135°09'0 0.0
2017-Jun-16 23:01N 34°13' E 135°09'0 0.0
2017-Jun-16 22:30N 34°13' E 135°09'0 0.0
2017-Jun-16 22:01N 34°13' E 135°09'0 0.0
2017-Jun-16 21:30N 34°13' E 135°09'0 0.0
2017-Jun-16 21:00N 34°13' E 135°09'0 0.0
2017-Jun-16 20:31N 34°13' E 135°09'0 0.0
2017-Jun-16 20:00N 34°13' E 135°09'0 0.0
2017-Jun-16 19:30N 34°13' E 135°09'0 0.0
2017-Jun-16 19:00N 34°13' E 135°09'0 0.0
2017-Jun-16 18:30N 34°13' E 135°09'0 0.0
2017-Jun-16 18:01N 34°13' E 135°09'0 0.0
2017-Jun-16 17:30N 34°13' E 135°09'0 0.0
2017-Jun-16 17:01N 34°13' E 135°09'0 0.0
2017-Jun-16 16:30N 34°13' E 135°09'0 0.0
2017-Jun-16 16:01N 34°13' E 135°09'0 0.0
2017-Jun-16 15:31N 34°13' E 135°09'0 0.0
2017-Jun-16 15:00N 34°13' E 135°09'0 0.0
2017-Jun-16 14:01N 34°13' E 135°09'0 0.0
2017-Jun-16 13:31N 34°13' E 135°09'0 0.0
2017-Jun-16 13:00N 34°13' E 135°09'0 0.0
2017-Jun-16 12:30N 34°13' E 135°09'0 0.0
2017-Jun-16 12:00N 34°13' E 135°09'0 0.0
2017-Jun-16 11:30N 34°13' E 135°09'0 0.0
2017-Jun-16 11:00N 34°13' E 135°09'0 0.0
2017-Jun-16 10:30N 34°13' E 135°09'0 0.0
2017-Jun-16 10:00N 34°13' E 135°09'0 0.0
2017-Jun-16 09:30N 34°13' E 135°09'0 0.0
2017-Jun-16 09:00N 34°13' E 135°09'0 0.0
2017-Jun-16 08:30N 34°13' E 135°09'0 0.0
2017-Jun-16 08:00N 34°13' E 135°09'0 0.0
2017-Jun-16 07:30N 34°13' E 135°09'0 0.0
2017-Jun-16 07:00N 34°13' E 135°09'0 0.0
2017-Jun-16 06:31N 34°13' E 135°09'0 0.0
2017-Jun-16 06:00N 34°13' E 135°09'9 6.6
2017-Jun-16 04:37N 34°22' E 135°07'211.0
2017-Jun-16 04:24N 34°24' E 135°09'511.2
2017-Jun-16 03:58N 34°28' E 135°13'510.6
2017-Jun-16 03:31N 34°31' E 135°16'2 4.0
2017-Jun-16 03:00N 34°33' E 135°18'0 0.0
2017-Jun-16 02:30N 34°33' E 135°18'0 0.0
2017-Jun-16 02:01N 34°33' E 135°18'0 0.0
2017-Jun-16 01:31N 34°33' E 135°18'0 0.0
2017-Jun-16 01:01N 34°33' E 135°18'0 0.1
2017-Jun-16 00:30N 34°33' E 135°18'0 0.0
2017-Jun-16 00:00N 34°33' E 135°18'0 0.0
2017-Jun-15 23:30N 34°33' E 135°18'0 0.0
2017-Jun-15 22:44N 34°33' E 135°18'0 0.0
2017-Jun-15 22:30N 34°33' E 135°18'0 0.0
2017-Jun-15 22:00N 34°33' E 135°18'0 0.1
2017-Jun-15 21:31N 34°33' E 135°18'0 0.0
2017-Jun-15 21:01N 34°33' E 135°18'0 0.0
2017-Jun-15 20:31N 34°33' E 135°18'0 0.0
2017-Jun-15 20:00N 34°33' E 135°18'0 0.0
2017-Jun-15 19:30N 34°33' E 135°18'0 0.0
2017-Jun-15 19:00N 34°33' E 135°18'0 0.0
2017-Jun-15 18:30N 34°33' E 135°18'0 0.0
2017-Jun-15 18:01N 34°33' E 135°18'0 0.0
2017-Jun-15 17:31N 34°33' E 135°18'0 0.0
2017-Jun-15 17:01N 34°33' E 135°18'0 0.0
2017-Jun-15 16:30N 34°33' E 135°18'0 0.0
2017-Jun-15 16:01N 34°33' E 135°18'0 0.0
2017-Jun-15 15:31N 34°33' E 135°18'0 0.0
2017-Jun-15 15:01N 34°33' E 135°18'0 0.0
2017-Jun-15 14:30N 34°33' E 135°18'0 0.0
2017-Jun-15 13:31N 34°33' E 135°18'0 0.0
2017-Jun-15 13:00N 34°33' E 135°18'0 0.0
2017-Jun-15 12:31N 34°33' E 135°18'0 0.0
2017-Jun-15 12:00N 34°33' E 135°18'0 0.0
2017-Jun-15 11:31N 34°33' E 135°18'0 0.0
2017-Jun-15 11:00N 34°33' E 135°18'0 0.0
2017-Jun-15 10:31N 34°33' E 135°18'0 0.0
2017-Jun-15 10:00N 34°33' E 135°18'0 0.0
2017-Jun-15 09:31N 34°33' E 135°18'2 4.3
2017-Jun-15 09:00N 34°33' E 135°15'612.4
2017-Jun-15 08:30N 34°34' E 135°08'713.7
2017-Jun-15 08:00N 34°37' E 135°01'13 0.8
2017-Jun-14 16:23N 34°42' E 134°46'  

Dump ship's entire track history